WMT409 EKBI-EDDB
Flight info
| Callsign | WMT409 |
|---|---|
| Flight time | 0h 50m |
| Altitude | 33000 |
| Route | ALS M852 AMLUH L619 VIBIS T209 OGBER OGBER1R |
| Aircraft | A20N/M-SDE2E3FGHIRWXY/LB1 |
Departure
| Time | 2026-05-07 18:00 |
|---|---|
| Airport | Billund Airport (EKBI) |
Arrival
| Time | 2026-05-07 18:51 |
|---|---|
| Airport | Berlin Brandenburg Airport (EDDB) |
| Time | Latitude | Longitude | Altitude | Speed | Heading |
|---|---|---|---|---|---|
| 2026-05-07 17:37 | 55.73754 | 9.13969 | 227 ft | 0 kts | 177° |
| 2026-05-07 17:47 | 55.73757 | 9.13969 | 227 ft | 1 kts | 177° |
| 2026-05-07 17:48 | 55.73764 | 9.13968 | 227 ft | 1 kts | 177° |
| 2026-05-07 17:48 | 55.73772 | 9.13967 | 227 ft | 1 kts | 177° |
| 2026-05-07 17:48 | 55.73780 | 9.13967 | 229 ft | 1 kts | 177° |
| 2026-05-07 17:48 | 55.73787 | 9.13966 | 228 ft | 1 kts | 177° |
| 2026-05-07 17:49 | 55.73795 | 9.13965 | 227 ft | 1 kts | 177° |
| 2026-05-07 17:49 | 55.73803 | 9.13965 | 227 ft | 1 kts | 177° |
| 2026-05-07 17:49 | 55.73810 | 9.13964 | 227 ft | 1 kts | 165° |
| 2026-05-07 17:49 | 55.73818 | 9.13960 | 227 ft | 1 kts | 146° |
| 2026-05-07 17:50 | 55.73824 | 9.13952 | 230 ft | 1 kts | 140° |
| 2026-05-07 17:50 | 55.73830 | 9.13943 | 229 ft | 1 kts | 135° |
| 2026-05-07 17:50 | 55.73835 | 9.13934 | 228 ft | 1 kts | 126° |
| 2026-05-07 17:50 | 55.73839 | 9.13923 | 227 ft | 1 kts | 108° |
| 2026-05-07 17:51 | 55.73839 | 9.13930 | 227 ft | 1 kts | 98° |
| 2026-05-07 17:51 | 55.73839 | 9.13934 | 228 ft | 0 kts | 95° |
| 2026-05-07 17:53 | 55.73839 | 9.13946 | 227 ft | 9 kts | 90° |
| 2026-05-07 17:53 | 55.73841 | 9.13973 | 227 ft | 0 kts | 82° |
| 2026-05-07 17:54 | 55.73841 | 9.13996 | 227 ft | 11 kts | 92° |
| 2026-05-07 17:54 | 55.73863 | 9.14205 | 230 ft | 20 kts | 69° |
| 2026-05-07 17:54 | 55.73908 | 9.14332 | 229 ft | 0 kts | 47° |
| 2026-05-07 17:54 | 55.73909 | 9.14333 | 229 ft | 0 kts | 47° |
| 2026-05-07 17:55 | 55.73936 | 9.14384 | 230 ft | 14 kts | 46° |
| 2026-05-07 17:55 | 55.74018 | 9.14498 | 230 ft | 16 kts | 8° |
| 2026-05-07 17:55 | 55.74090 | 9.14494 | 230 ft | 17 kts | 356° |
| 2026-05-07 17:56 | 55.74171 | 9.14516 | 231 ft | 10 kts | 47° |
| 2026-05-07 17:56 | 55.74187 | 9.14639 | 232 ft | 11 kts | 86° |
| 2026-05-07 17:56 | 55.74193 | 9.14851 | 235 ft | 26 kts | 87° |
| 2026-05-07 17:56 | 55.74204 | 9.15184 | 235 ft | 28 kts | 87° |
| 2026-05-07 17:57 | 55.74217 | 9.15604 | 238 ft | 42 kts | 87° |
| 2026-05-07 17:57 | 55.74234 | 9.16125 | 241 ft | 42 kts | 86° |
| 2026-05-07 17:57 | 55.74250 | 9.16636 | 244 ft | 41 kts | 86° |
| 2026-05-07 17:57 | 55.74266 | 9.17134 | 248 ft | 40 kts | 86° |
| 2026-05-07 17:58 | 55.74279 | 9.17617 | 251 ft | 39 kts | 87° |
| 2026-05-07 17:58 | 55.74290 | 9.17933 | 253 ft | 23 kts | 88° |
| 2026-05-07 17:58 | 55.74226 | 9.18149 | 254 ft | 18 kts | 166° |
| 2026-05-07 17:58 | 55.74131 | 9.18076 | 253 ft | 15 kts | 255° |
| 2026-05-07 17:59 | 55.74123 | 9.17969 | 252 ft | 1 kts | 266° |
| 2026-05-07 17:59 | 55.74121 | 9.17919 | 252 ft | 7 kts | 266° |
| 2026-05-07 17:59 | 55.74114 | 9.17657 | 249 ft | 42 kts | 268° |
| 2026-05-07 17:59 | 55.74086 | 9.16752 | 248 ft | 105 kts | 267° |
| 2026-05-07 18:00 | 55.74032 | 9.15148 | 314 ft | 147 kts | 269° |
| 2026-05-07 18:00 | 55.73973 | 9.13293 | 765 ft | 152 kts | 268° |
| 2026-05-07 18:00 | 55.73947 | 9.11434 | 1374 ft | 149 kts | 281° |
| 2026-05-07 18:00 | 55.74430 | 9.09825 | 1902 ft | 152 kts | 310° |
| 2026-05-07 18:01 | 55.75165 | 9.08361 | 2191 ft | 168 kts | 310° |
| 2026-05-07 18:01 | 55.75990 | 9.06708 | 2367 ft | 187 kts | 310° |
| 2026-05-07 18:01 | 55.76777 | 9.05152 | 3340 ft | 150 kts | 310° |
| 2026-05-07 18:01 | 55.77480 | 9.03784 | 3769 ft | 156 kts | 310° |
| 2026-05-07 18:02 | 55.79410 | 9.00084 | 3311 ft | 253 kts | 312° |
| 2026-05-07 18:02 | 55.80498 | 8.97464 | 3343 ft | 269 kts | 291° |
| 2026-05-07 18:02 | 55.80771 | 8.94275 | 4109 ft | 259 kts | 263° |
| 2026-05-07 18:03 | 55.80202 | 8.91280 | 4693 ft | 259 kts | 236° |
| 2026-05-07 18:03 | 55.78903 | 8.89100 | 5232 ft | 259 kts | 207° |
| 2026-05-07 18:03 | 55.77198 | 8.88278 | 5774 ft | 260 kts | 180° |
| 2026-05-07 18:03 | 55.75417 | 8.89007 | 6304 ft | 264 kts | 152° |
| 2026-05-07 18:04 | 55.74060 | 8.91143 | 7149 ft | 268 kts | 127° |
| 2026-05-07 18:04 | 55.73039 | 8.93934 | 8149 ft | 272 kts | 123° |
| 2026-05-07 18:04 | 55.71917 | 8.96659 | 9107 ft | 276 kts | 130° |
| 2026-05-07 18:04 | 55.70571 | 8.99147 | 10090 ft | 281 kts | 137° |
| 2026-05-07 18:05 | 55.69051 | 9.01438 | 10725 ft | 298 kts | 141° |
| 2026-05-07 18:05 | 55.67336 | 9.03738 | 11062 ft | 321 kts | 144° |
| 2026-05-07 18:05 | 55.65465 | 9.06119 | 11567 ft | 337 kts | 144° |
| 2026-05-07 18:05 | 55.63544 | 9.08532 | 11710 ft | 338 kts | 144° |
| 2026-05-07 18:06 | 55.61621 | 9.10950 | 11820 ft | 339 kts | 144° |
| 2026-05-07 18:06 | 55.59695 | 9.13382 | 11977 ft | 342 kts | 144° |
| 2026-05-07 18:06 | 55.57750 | 9.15846 | 12687 ft | 345 kts | 144° |
| 2026-05-07 18:06 | 55.55789 | 9.18331 | 13568 ft | 350 kts | 144° |
| 2026-05-07 18:07 | 55.53791 | 9.20862 | 14318 ft | 356 kts | 144° |
| 2026-05-07 18:07 | 55.51770 | 9.23419 | 15091 ft | 360 kts | 145° |
| 2026-05-07 18:07 | 55.49723 | 9.26005 | 15832 ft | 364 kts | 145° |
| 2026-05-07 18:07 | 55.47652 | 9.28618 | 16580 ft | 368 kts | 145° |
| 2026-05-07 18:08 | 55.45558 | 9.31255 | 17311 ft | 372 kts | 145° |
| 2026-05-07 18:08 | 55.43435 | 9.33926 | 18041 ft | 377 kts | 145° |
| 2026-05-07 18:08 | 55.41291 | 9.36619 | 18716 ft | 381 kts | 145° |
| 2026-05-07 18:08 | 55.39123 | 9.39340 | 19345 ft | 385 kts | 145° |
| 2026-05-07 18:09 | 55.36928 | 9.42090 | 19973 ft | 389 kts | 145° |
| 2026-05-07 18:09 | 55.34714 | 9.44861 | 20585 ft | 393 kts | 145° |
| 2026-05-07 18:09 | 55.32478 | 9.47654 | 21212 ft | 396 kts | 145° |
| 2026-05-07 18:09 | 55.30220 | 9.50471 | 21825 ft | 400 kts | 145° |
| 2026-05-07 18:10 | 55.27941 | 9.53311 | 22422 ft | 404 kts | 145° |
| 2026-05-07 18:10 | 55.25638 | 9.56176 | 23025 ft | 408 kts | 145° |
| 2026-05-07 18:10 | 55.23313 | 9.59063 | 23612 ft | 412 kts | 145° |
| 2026-05-07 18:10 | 55.20966 | 9.61975 | 24139 ft | 415 kts | 145° |
| 2026-05-07 18:11 | 55.18603 | 9.64901 | 24649 ft | 417 kts | 145° |
| 2026-05-07 18:11 | 55.17028 | 9.66848 | 24981 ft | 419 kts | 145° |
| 2026-05-07 18:11 | 55.13826 | 9.70803 | 25624 ft | 423 kts | 145° |
| 2026-05-07 18:11 | 55.11412 | 9.73778 | 26115 ft | 426 kts | 144° |
| 2026-05-07 18:12 | 55.08982 | 9.76769 | 26585 ft | 429 kts | 144° |
| 2026-05-07 18:12 | 55.06535 | 9.79777 | 27053 ft | 431 kts | 144° |
| 2026-05-07 18:12 | 55.04074 | 9.82796 | 27518 ft | 434 kts | 144° |
| 2026-05-07 18:12 | 55.01597 | 9.85832 | 27969 ft | 436 kts | 144° |
| 2026-05-07 18:13 | 54.99143 | 9.88835 | 28422 ft | 438 kts | 144° |
| 2026-05-07 18:13 | 54.96612 | 9.91926 | 28849 ft | 440 kts | 144° |
| 2026-05-07 18:13 | 54.94090 | 9.94831 | 29248 ft | 442 kts | 151° |
| 2026-05-07 18:13 | 54.91206 | 9.96922 | 29642 ft | 446 kts | 163° |
| 2026-05-07 18:14 | 54.88144 | 9.97848 | 30021 ft | 449 kts | 176° |
| 2026-05-07 18:14 | 54.85018 | 9.97592 | 30340 ft | 453 kts | 189° |
| 2026-05-07 18:14 | 54.81914 | 9.96583 | 30640 ft | 456 kts | 190° |
| 2026-05-07 18:14 | 54.78791 | 9.95527 | 30955 ft | 458 kts | 190° |
| 2026-05-07 18:15 | 54.75652 | 9.94473 | 31264 ft | 461 kts | 190° |
| 2026-05-07 18:15 | 54.72502 | 9.93429 | 31634 ft | 461 kts | 190° |
| 2026-05-07 18:15 | 54.69350 | 9.92394 | 32048 ft | 461 kts | 189° |
| 2026-05-07 18:15 | 54.66199 | 9.91367 | 32457 ft | 461 kts | 189° |
| 2026-05-07 18:16 | 54.63092 | 9.90360 | 32838 ft | 461 kts | 189° |
| 2026-05-07 18:16 | 54.59895 | 9.89336 | 32990 ft | 460 kts | 189° |
| 2026-05-07 18:16 | 54.56757 | 9.88337 | 33088 ft | 458 kts | 189° |
| 2026-05-07 18:17 | 54.50438 | 9.87296 | 33127 ft | 455 kts | 176° |
| 2026-05-07 18:17 | 54.47305 | 9.87927 | 33127 ft | 452 kts | 165° |
| 2026-05-07 18:17 | 54.44339 | 9.89652 | 33129 ft | 449 kts | 152° |
| 2026-05-07 18:18 | 54.39105 | 9.95371 | 33129 ft | 446 kts | 142° |
| 2026-05-07 18:18 | 54.33993 | 10.01408 | 33131 ft | 447 kts | 144° |
| 2026-05-07 18:19 | 54.28803 | 10.07130 | 33125 ft | 446 kts | 146° |
| 2026-05-07 18:19 | 54.23547 | 10.12777 | 33123 ft | 446 kts | 146° |
| 2026-05-07 18:20 | 54.18285 | 10.18404 | 33120 ft | 446 kts | 146° |
| 2026-05-07 18:20 | 54.13024 | 10.24016 | 33116 ft | 446 kts | 147° |
| 2026-05-07 18:21 | 54.07760 | 10.29617 | 33111 ft | 446 kts | 147° |
| 2026-05-07 18:21 | 54.02555 | 10.35334 | 33108 ft | 445 kts | 139° |
| 2026-05-07 18:22 | 53.98221 | 10.42795 | 33108 ft | 444 kts | 131° |
| 2026-05-07 18:22 | 53.94054 | 10.50539 | 33104 ft | 444 kts | 132° |
| 2026-05-07 18:23 | 53.89784 | 10.58139 | 33111 ft | 446 kts | 133° |
| 2026-05-07 18:23 | 53.85461 | 10.65685 | 33115 ft | 447 kts | 134° |
| 2026-05-07 18:24 | 53.81120 | 10.73226 | 33121 ft | 448 kts | 134° |
| 2026-05-07 18:24 | 53.76762 | 10.80774 | 33128 ft | 449 kts | 134° |
| 2026-05-07 18:25 | 53.72391 | 10.88325 | 33133 ft | 450 kts | 134° |
| 2026-05-07 18:25 | 53.68008 | 10.95874 | 33129 ft | 451 kts | 134° |
| 2026-05-07 18:26 | 53.63610 | 11.03423 | 33126 ft | 451 kts | 134° |
| 2026-05-07 18:26 | 53.59207 | 11.10958 | 33082 ft | 449 kts | 134° |
| 2026-05-07 18:26 | 53.57026 | 11.14681 | 32702 ft | 446 kts | 134° |
| 2026-05-07 18:27 | 53.54850 | 11.18391 | 32025 ft | 446 kts | 134° |
| 2026-05-07 18:27 | 53.52669 | 11.22104 | 31234 ft | 447 kts | 134° |
| 2026-05-07 18:27 | 53.50483 | 11.25819 | 30429 ft | 448 kts | 135° |
| 2026-05-07 18:27 | 53.49032 | 11.28282 | 29946 ft | 447 kts | 135° |
| 2026-05-07 18:28 | 53.46124 | 11.33209 | 29023 ft | 441 kts | 135° |
| 2026-05-07 18:28 | 53.43973 | 11.36847 | 28343 ft | 438 kts | 135° |
| 2026-05-07 18:28 | 53.41835 | 11.40458 | 27672 ft | 434 kts | 135° |
| 2026-05-07 18:28 | 53.39717 | 11.44029 | 27026 ft | 431 kts | 135° |
| 2026-05-07 18:29 | 53.37612 | 11.47572 | 26429 ft | 427 kts | 135° |
| 2026-05-07 18:29 | 53.35525 | 11.51080 | 25824 ft | 423 kts | 135° |
| 2026-05-07 18:29 | 53.33455 | 11.54554 | 25222 ft | 420 kts | 135° |
| 2026-05-07 18:29 | 53.31396 | 11.58006 | 24637 ft | 417 kts | 135° |
| 2026-05-07 18:30 | 53.29355 | 11.61423 | 24063 ft | 414 kts | 136° |
| 2026-05-07 18:30 | 53.27239 | 11.64642 | 23454 ft | 411 kts | 139° |
| 2026-05-07 18:30 | 53.25129 | 11.67830 | 22843 ft | 407 kts | 138° |
| 2026-05-07 18:30 | 53.23043 | 11.70999 | 22225 ft | 403 kts | 138° |
| 2026-05-07 18:31 | 53.20970 | 11.74112 | 21627 ft | 400 kts | 139° |
| 2026-05-07 18:31 | 53.18900 | 11.77187 | 21034 ft | 396 kts | 139° |
| 2026-05-07 18:31 | 53.16844 | 11.80217 | 20450 ft | 393 kts | 139° |
| 2026-05-07 18:31 | 53.14796 | 11.83221 | 19868 ft | 391 kts | 139° |
| 2026-05-07 18:32 | 53.12767 | 11.86189 | 19323 ft | 387 kts | 139° |
| 2026-05-07 18:32 | 53.10748 | 11.89137 | 18761 ft | 384 kts | 139° |
| 2026-05-07 18:32 | 53.08742 | 11.92064 | 18193 ft | 382 kts | 139° |
| 2026-05-07 18:32 | 53.06753 | 11.94963 | 17609 ft | 378 kts | 139° |
| 2026-05-07 18:33 | 53.04809 | 11.97793 | 17063 ft | 375 kts | 139° |
| 2026-05-07 18:33 | 53.02858 | 12.00630 | 16515 ft | 371 kts | 139° |
| 2026-05-07 18:33 | 53.00926 | 12.03436 | 15991 ft | 367 kts | 139° |
| 2026-05-07 18:33 | 52.99009 | 12.06216 | 15453 ft | 364 kts | 139° |
| 2026-05-07 18:34 | 52.97106 | 12.08973 | 14948 ft | 361 kts | 139° |
| 2026-05-07 18:34 | 52.95227 | 12.11692 | 14470 ft | 357 kts | 139° |
| 2026-05-07 18:34 | 52.93377 | 12.14366 | 14347 ft | 354 kts | 139° |
| 2026-05-07 18:34 | 52.91497 | 12.17079 | 14228 ft | 360 kts | 139° |
| 2026-05-07 18:35 | 52.89618 | 12.19788 | 14132 ft | 357 kts | 139° |
| 2026-05-07 18:35 | 52.87748 | 12.22482 | 14092 ft | 356 kts | 139° |
| 2026-05-07 18:35 | 52.85873 | 12.25178 | 14094 ft | 358 kts | 139° |
| 2026-05-07 18:35 | 52.83994 | 12.27879 | 14071 ft | 357 kts | 139° |
| 2026-05-07 18:36 | 52.82126 | 12.30559 | 13820 ft | 355 kts | 139° |
| 2026-05-07 18:36 | 52.80268 | 12.33223 | 13364 ft | 352 kts | 139° |
| 2026-05-07 18:36 | 52.78422 | 12.35862 | 12824 ft | 350 kts | 139° |
| 2026-05-07 18:36 | 52.76588 | 12.38482 | 12283 ft | 347 kts | 139° |
| 2026-05-07 18:37 | 52.75362 | 12.40232 | 11945 ft | 345 kts | 139° |
| 2026-05-07 18:37 | 52.73571 | 12.42788 | 11446 ft | 342 kts | 139° |
| 2026-05-07 18:37 | 52.71759 | 12.45371 | 10941 ft | 339 kts | 139° |
| 2026-05-07 18:37 | 52.70001 | 12.47874 | 10465 ft | 336 kts | 139° |
| 2026-05-07 18:38 | 52.68250 | 12.50364 | 10275 ft | 333 kts | 139° |
| 2026-05-07 18:38 | 52.66479 | 12.52880 | 10157 ft | 337 kts | 139° |
| 2026-05-07 18:38 | 52.64713 | 12.55388 | 10090 ft | 333 kts | 139° |
| 2026-05-07 18:38 | 52.62960 | 12.57872 | 10090 ft | 327 kts | 139° |
| 2026-05-07 18:39 | 52.61280 | 12.60251 | 10087 ft | 310 kts | 139° |
| 2026-05-07 18:39 | 52.59686 | 12.62506 | 10085 ft | 293 kts | 139° |
| 2026-05-07 18:39 | 52.58169 | 12.64651 | 10094 ft | 288 kts | 139° |
| 2026-05-07 18:39 | 52.56640 | 12.66810 | 10090 ft | 290 kts | 139° |
| 2026-05-07 18:40 | 52.55112 | 12.68968 | 10089 ft | 289 kts | 139° |
| 2026-05-07 18:40 | 52.53588 | 12.71115 | 10088 ft | 289 kts | 139° |
| 2026-05-07 18:40 | 52.52059 | 12.73267 | 10088 ft | 289 kts | 139° |
| 2026-05-07 18:40 | 52.50534 | 12.75413 | 10088 ft | 289 kts | 139° |
| 2026-05-07 18:41 | 52.49007 | 12.77559 | 10082 ft | 289 kts | 139° |
| 2026-05-07 18:41 | 52.47493 | 12.79685 | 9800 ft | 286 kts | 139° |
| 2026-05-07 18:41 | 52.45989 | 12.81792 | 9273 ft | 284 kts | 139° |
| 2026-05-07 18:41 | 52.44493 | 12.83886 | 8702 ft | 281 kts | 139° |
| 2026-05-07 18:42 | 52.43022 | 12.85944 | 8245 ft | 276 kts | 138° |
| 2026-05-07 18:42 | 52.41554 | 12.88000 | 7712 ft | 276 kts | 138° |
| 2026-05-07 18:42 | 52.40094 | 12.90041 | 7273 ft | 276 kts | 138° |
| 2026-05-07 18:42 | 52.38639 | 12.92072 | 6912 ft | 274 kts | 138° |
| 2026-05-07 18:43 | 52.37195 | 12.94086 | 6549 ft | 272 kts | 138° |
| 2026-05-07 18:43 | 52.35759 | 12.96087 | 6165 ft | 270 kts | 138° |
| 2026-05-07 18:43 | 52.34333 | 12.98075 | 5783 ft | 268 kts | 138° |
| 2026-05-07 18:43 | 52.32918 | 13.00045 | 5405 ft | 267 kts | 138° |
| 2026-05-07 18:44 | 52.31507 | 13.02008 | 5034 ft | 265 kts | 138° |
| 2026-05-07 18:44 | 52.30124 | 13.03929 | 4662 ft | 264 kts | 137° |
| 2026-05-07 18:44 | 52.28715 | 13.05884 | 4286 ft | 262 kts | 137° |
| 2026-05-07 18:44 | 52.27646 | 13.08167 | 4127 ft | 249 kts | 107° |
| 2026-05-07 18:45 | 52.27606 | 13.10846 | 4029 ft | 233 kts | 71° |
| 2026-05-07 18:45 | 52.28214 | 13.13186 | 3929 ft | 222 kts | 64° |
| 2026-05-07 18:45 | 52.28849 | 13.15420 | 3818 ft | 212 kts | 65° |
| 2026-05-07 18:45 | 52.29406 | 13.17577 | 3703 ft | 201 kts | 67° |
| 2026-05-07 18:46 | 52.29905 | 13.19641 | 3614 ft | 190 kts | 68° |
| 2026-05-07 18:46 | 52.30372 | 13.21600 | 3530 ft | 179 kts | 68° |
| 2026-05-07 18:46 | 52.30806 | 13.23425 | 3402 ft | 168 kts | 68° |
| 2026-05-07 18:46 | 52.31219 | 13.25158 | 3221 ft | 159 kts | 68° |
| 2026-05-07 18:47 | 52.31609 | 13.26797 | 3015 ft | 151 kts | 68° |
| 2026-05-07 18:47 | 52.31980 | 13.28361 | 2821 ft | 145 kts | 68° |
| 2026-05-07 18:47 | 52.32339 | 13.29867 | 2636 ft | 139 kts | 68° |
| 2026-05-07 18:47 | 52.32685 | 13.31322 | 2446 ft | 136 kts | 68° |
| 2026-05-07 18:48 | 52.33030 | 13.32773 | 2253 ft | 137 kts | 68° |
| 2026-05-07 18:48 | 52.33375 | 13.34224 | 2077 ft | 138 kts | 68° |
| 2026-05-07 18:48 | 52.33719 | 13.35673 | 1891 ft | 136 kts | 68° |
| 2026-05-07 18:48 | 52.34055 | 13.37087 | 1713 ft | 133 kts | 68° |
| 2026-05-07 18:49 | 52.34387 | 13.38486 | 1519 ft | 132 kts | 68° |
| 2026-05-07 18:49 | 52.34723 | 13.39900 | 1335 ft | 133 kts | 68° |
| 2026-05-07 18:49 | 52.35059 | 13.41313 | 1138 ft | 134 kts | 68° |
| 2026-05-07 18:49 | 52.35399 | 13.42742 | 944 ft | 136 kts | 68° |
| 2026-05-07 18:50 | 52.35743 | 13.44179 | 748 ft | 136 kts | 68° |
| 2026-05-07 18:50 | 52.36093 | 13.45627 | 565 ft | 137 kts | 68° |
| 2026-05-07 18:50 | 52.36436 | 13.47082 | 380 ft | 138 kts | 69° |
| 2026-05-07 18:50 | 52.36781 | 13.48546 | 210 ft | 138 kts | 69° |
| 2026-05-07 18:51 | 52.37110 | 13.49936 | 159 ft | 108 kts | 69° |
| 2026-05-07 18:51 | 52.37294 | 13.50750 | 157 ft | 35 kts | 72° |
| 2026-05-07 18:51 | 52.37298 | 13.51071 | 158 ft | 24 kts | 97° |
| 2026-05-07 18:51 | 52.37283 | 13.51242 | 158 ft | 0 kts | 102° |
| 2026-05-07 18:52 | 52.37277 | 13.51286 | 159 ft | 0 kts | 102° |
| 2026-05-07 18:52 | 52.37249 | 13.51373 | 160 ft | 13 kts | 137° |
| 2026-05-07 18:52 | 52.37161 | 13.51442 | 158 ft | 10 kts | 160° |
| 2026-05-07 18:53 | 52.37158 | 13.51443 | 158 ft | 0 kts | 160° |
| 2026-05-07 18:53 | 52.37161 | 13.51442 | 158 ft | 2 kts | 160° |
| 2026-05-07 18:53 | 52.37167 | 13.51438 | 158 ft | 3 kts | 157° |
| 2026-05-07 18:53 | 52.37176 | 13.51432 | 158 ft | 0 kts | 157° |
| 2026-05-07 18:54 | 52.37174 | 13.51433 | 158 ft | 4 kts | 156° |
| 2026-05-07 18:54 | 52.37110 | 13.51472 | 159 ft | 10 kts | 158° |
| 2026-05-07 18:54 | 52.37051 | 13.51461 | 159 ft | 8 kts | 220° |
| 2026-05-07 18:55 | 52.37023 | 13.51378 | 158 ft | 9 kts | 248° |
| 2026-05-07 18:55 | 52.36998 | 13.51272 | 156 ft | 11 kts | 248° |
| 2026-05-07 18:55 | 52.36971 | 13.51161 | 154 ft | 0 kts | 249° |
| 2026-05-07 18:55 | 52.36968 | 13.51145 | 154 ft | 10 kts | 249° |
| 2026-05-07 18:56 | 52.36937 | 13.51015 | 155 ft | 13 kts | 249° |
| 2026-05-07 18:56 | 52.36903 | 13.50877 | 155 ft | 13 kts | 248° |
| 2026-05-07 18:56 | 52.36872 | 13.50742 | 156 ft | 12 kts | 249° |
| 2026-05-07 18:56 | 52.36842 | 13.50620 | 157 ft | 11 kts | 248° |
| 2026-05-07 18:57 | 52.36813 | 13.50492 | 156 ft | 12 kts | 249° |
| 2026-05-07 18:57 | 52.36796 | 13.50420 | 156 ft | 0 kts | 249° |
| 2026-05-07 18:58 | 52.36776 | 13.50393 | 156 ft | 2 kts | 170° |
| 2026-05-07 18:59 | 52.36759 | 13.50405 | 156 ft | 2 kts | 160° |
| 2026-05-07 18:59 | 52.36753 | 13.50409 | 156 ft | 0 kts | 160° |
| 2026-05-07 18:59 | 52.36743 | 13.50415 | 156 ft | 7 kts | 159° |
| 2026-05-07 18:59 | 52.36719 | 13.50431 | 157 ft | 0 kts | 158° |